Eglin AFB Auxiliary Field Crestview Okaloosa Florida US
ICAO: KEGI
IATA: EGI
Category: Medium
Scheduled Services: No

Elevation: 191 ft
TransAlt. 18000 ft.

Airport Communications:
APP:37.915
APP:125.1
DEP:120.9
GND:25.112
COMD POST:150.6
PTD:139.3
TWR:133.2

KEGI Zoom In..

If you have problems with the map follow the link
https://www.worldairports.se/pages/airport.php?
ICAO=KEGI

Runways:

(A) RW 18 length 8025 ft width 150 ft
ILS 111.70 / hdg 180

(B) RW 36 length 8025 ft width 150 ft
---- / hdg 360

Location; KEGI
Day. 21 / Time. 20.01 Zulu
* Altimeter: 30.38
* Temperature: 06° c. 42.8°f.
* Wind from: 040° Speed 10 kn with Gusts up to 19 kn.
Dewpoint: -07° c.
Visibility: 10 Statute Miles.
Clouds: Clear (automated report).

KEGI 212001Z AUTO 04010G19KT 10SM CLR 06/M07 A3038 RMK AO2 WSHFT 1957 SLP290 $


Wind From 040°
Speed 10 kn.

 
 
jpsmedia worldairports.se 2020   terms of use